Time;durP1;ratioP1;P1;durP2;ratioP2;P2;SDS_P1;SDS_P2;PMS_P1;PMS_P2;Temp;Humidity;BMP_temperature;BMP_pressure;BME280_temperature;BME280_humidity;BME280_pressure;Samples;Min_cycle;Max_cycle;Signal;HPM_P1;HPM_P2
2022/04/02 00:00:07;;;;;;;5.72;3.13;;;;;;;1.43;74.33;101422.91;5034859;28;20041;-63
2022/04/02 00:02:33;;;;;;;6.38;2.90;;;;;;;1.45;74.20;101419.56;5035077;28;20112;-62
2022/04/02 00:04:58;;;;;;;4.18;3.08;;;;;;;1.47;74.14;101420.47;5035112;28;20128;-62
2022/04/02 00:07:23;;;;;;;5.68;3.30;;;;;;;1.44;75.83;101422.09;5034474;28;20030;-64
2022/04/02 00:09:48;;;;;;;7.53;3.38;;;;;;;1.44;75.55;101435.84;5035194;28;20061;-60
2022/04/02 00:12:14;;;;;;;7.45;3.20;;;;;;;1.42;74.93;101421.16;5034044;28;20480;-63
2022/04/02 00:14:39;;;;;;;9.15;3.80;;;;;;;1.48;75.66;101422.25;5034733;28;20113;-64
2022/04/02 00:17:05;;;;;;;6.38;3.92;;;;;;;1.49;74.73;101421.41;5034894;28;20037;-63
2022/04/02 00:19:30;;;;;;;6.22;3.42;;;;;;;1.48;74.98;101421.38;5034866;28;20029;-62
2022/04/02 00:21:56;;;;;;;7.18;3.50;;;;;;;1.52;73.57;101424.09;5035049;28;20079;-62
2022/04/02 00:24:21;;;;;;;9.40;4.95;;;;;;;1.50;73.98;101432.59;5034523;28;20113;-63
2022/04/02 00:26:46;;;;;;;6.75;3.92;;;;;;;1.49;74.31;101442.03;5034456;28;20069;-63
2022/04/02 00:29:12;;;;;;;5.82;3.78;;;;;;;1.48;74.85;101439.41;5034571;28;20427;-62
2022/04/02 00:31:37;;;;;;;10.38;4.32;;;;;;;1.45;74.27;101435.03;5034662;28;20036;-62
2022/04/02 00:34:03;;;;;;;10.20;5.18;;;;;;;1.48;74.11;101432.56;5034903;28;20095;-63
2022/04/02 00:36:28;;;;;;;8.73;3.92;;;;;;;1.37;73.88;101408.13;5034513;28;20041;-63
2022/04/02 00:38:53;;;;;;;6.80;4.05;;;;;;;1.43;74.21;101422.91;5034066;28;20040;-63
2022/04/02 00:41:19;;;;;;;7.38;4.40;;;;;;;1.47;74.57;101424.75;5034184;28;20041;-62
2022/04/02 00:43:58;;;;;;;7.43;4.35;;;;;;;1.41;74.80;101422.84;5034716;28;20127;-61
2022/04/02 00:46:24;;;;;;;6.50;3.80;;;;;;;1.44;73.21;101420.38;5034823;28;20045;-62
2022/04/02 00:48:50;;;;;;;7.10;3.55;;;;;;;1.48;72.82;101423.94;5034806;28;20055;-63
2022/04/02 00:51:18;;;;;;;5.32;3.58;;;;;;;1.44;73.44;101435.84;5034213;28;20053;-62
2022/04/02 00:53:47;;;;;;;6.72;3.60;;;;;;;1.42;73.18;101419.44;5034030;28;20073;-63
2022/04/02 00:56:13;;;;;;;5.95;3.72;;;;;;;1.39;72.82;101414.19;5034447;28;20056;-63
2022/04/02 00:58:39;;;;;;;6.50;3.95;;;;;;;1.44;73.57;101424.66;5034422;28;20029;-62
2022/04/02 01:01:06;;;;;;;9.55;4.47;;;;;;;1.44;73.77;101428.13;5034833;28;20082;-63
2022/04/02 01:03:32;;;;;;;9.20;4.75;;;;;;;1.41;73.89;101430.59;5034412;28;20030;-62
2022/04/02 01:05:57;;;;;;;9.07;4.82;;;;;;;1.42;73.16;101424.59;5034421;28;20415;-62
2022/04/02 01:08:22;;;;;;;6.60;3.35;;;;;;;1.44;73.13;101427.25;5034143;28;20038;-62
2022/04/02 01:10:48;;;;;;;6.05;3.30;;;;;;;1.40;73.73;101432.28;5034245;28;20037;-62
2022/04/02 01:13:15;;;;;;;7.18;4.00;;;;;;;1.40;72.98;101418.53;5034118;28;20052;-63
2022/04/02 01:15:41;;;;;;;7.90;3.85;;;;;;;1.39;73.42;101427.97;5034162;28;20030;-62
2022/04/02 01:18:06;;;;;;;6.55;3.88;;;;;;;1.43;73.27;101434.09;5034320;28;20036;-63
2022/04/02 01:20:32;;;;;;;6.28;4.00;;;;;;;1.38;73.95;101427.94;5033799;28;20076;-63
2022/04/02 01:22:59;;;;;;;7.18;3.80;;;;;;;1.30;74.19;101416.47;5035391;28;20065;-62
2022/04/02 01:25:25;;;;;;;6.05;4.00;;;;;;;1.33;74.73;101426.91;5037733;28;20029;-62
2022/04/02 01:27:50;;;;;;;6.47;3.35;;;;;;;1.35;73.88;101427.84;5037584;28;20045;-63
2022/04/02 01:30:15;;;;;;;5.28;3.25;;;;;;;1.32;73.11;101426.03;5037539;28;20057;-63
2022/04/02 01:32:42;;;;;;;7.45;4.32;;;;;;;1.35;73.22;101431.28;5037747;28;20025;-63
2022/04/02 01:35:09;;;;;;;5.60;3.55;;;;;;;1.28;73.85;101420.69;5037375;28;20041;-63
2022/04/02 01:37:36;;;;;;;6.07;3.40;;;;;;;1.27;73.60;101422.41;5037428;28;20406;-62
2022/04/02 01:40:06;;;;;;;6.00;3.65;;;;;;;1.40;72.31;101427.13;5037334;28;20026;-63
2022/04/02 01:42:32;;;;;;;5.22;3.00;;;;;;;1.33;72.84;101426.91;5037672;28;20060;-63
2022/04/02 01:44:57;;;;;;;6.53;3.30;;;;;;;1.31;72.25;101415.66;5037642;28;20108;-63
2022/04/02 01:47:22;;;;;;;6.90;3.22;;;;;;;1.33;72.10;101420.03;5037393;28;20041;-64
2022/04/02 01:49:48;;;;;;;7.28;3.53;;;;;;;1.38;72.20;101425.34;5037456;28;20041;-62
2022/04/02 01:52:17;;;;;;;7.05;3.70;;;;;;;1.35;72.24;101425.25;5037024;28;20053;-63
2022/04/02 01:54:43;;;;;;;4.50;3.20;;;;;;;1.27;72.79;101432.72;5037229;28;20033;-60
2022/04/02 01:57:09;;;;;;;5.13;3.15;;;;;;;1.29;71.88;101438.81;5037152;28;20112;-60
2022/04/02 01:59:34;;;;;;;6.38;3.40;;;;;;;1.24;73.24;101424.88;5036978;28;20068;-62
2022/04/02 02:02:00;;;;;;;5.22;3.22;;;;;;;1.29;71.64;101432.78;5036930;28;20025;-63
2022/04/02 02:04:26;;;;;;;7.10;3.80;;;;;;;1.25;72.91;101438.63;5036444;28;20044;-63
2022/04/02 02:06:51;;;;;;;6.78;3.20;;;;;;;1.20;72.27;101429.91;5036931;28;20033;-63
2022/04/02 02:09:17;;;;;;;7.30;3.50;;;;;;;1.18;73.01;101441.84;5036755;28;20025;-62
2022/04/02 02:11:42;;;;;;;5.03;3.13;;;;;;;1.18;72.26;101450.47;5037035;28;20034;-62
2022/04/02 02:14:07;;;;;;;7.10;3.25;;;;;;;1.16;72.58;101436.66;5037108;28;20032;-62
2022/04/02 02:16:33;;;;;;;7.93;3.65;;;;;;;1.16;72.25;101438.34;5037159;28;20109;-63
2022/04/02 02:18:58;;;;;;;6.47;3.20;;;;;;;1.14;72.31;101438.28;5036736;28;20026;-63
2022/04/02 02:21:24;;;;;;;4.97;2.88;;;;;;;1.14;73.03;101445.16;5036815;28;20084;-62
2022/04/02 02:23:49;;;;;;;6.97;3.45;;;;;;;1.14;73.07;101451.19;5036760;28;20415;-63
2022/04/02 02:26:14;;;;;;;5.97;3.15;;;;;;;1.08;73.42;101445.81;5036569;28;20029;-63
2022/04/02 02:28:41;;;;;;;6.57;3.40;;;;;;;1.05;74.18;101446.56;5036677;28;20041;-62
2022/04/02 02:31:06;;;;;;;5.25;2.75;;;;;;;1.03;73.34;101448.25;5036629;28;20448;-62
2022/04/02 02:36:17;;;;;;;6.43;3.35;;;;;;;1.04;73.98;101449.97;5035773;28;20167;-62
2022/04/02 02:38:43;;;;;;;9.45;3.17;;;;;;;1.10;72.74;101451.88;5036265;28;20364;-62
2022/04/02 02:41:10;;;;;;;5.50;3.40;;;;;;;1.02;72.70;101446.50;5036203;28;20063;-59
2022/04/02 02:43:36;;;;;;;5.93;3.22;;;;;;;1.08;72.49;101450.06;5036490;28;20021;-63
2022/04/02 02:46:01;;;;;;;4.50;2.75;;;;;;;1.10;71.43;101453.59;5036075;28;20365;-59
2022/04/02 02:48:26;;;;;;;8.35;3.15;;;;;;;1.01;72.40;101456.75;5036401;28;20112;-59
2022/04/02 02:50:52;;;;;;;7.03;3.00;;;;;;;0.98;72.54;101451.47;5036043;28;20121;-60
2022/04/02 02:53:17;;;;;;;4.63;2.70;;;;;;;1.05;72.36;101458.56;5035777;28;20048;-60
2022/04/02 02:55:44;;;;;;;6.28;2.97;;;;;;;0.84;72.43;101432.09;5036137;28;20041;-62
2022/04/02 02:58:09;;;;;;;5.45;3.03;;;;;;;0.97;72.66;101458.31;5036108;28;20040;-64
2022/04/02 03:00:35;;;;;;;5.35;2.83;;;;;;;1.06;72.17;101460.31;5035669;28;20368;-62
2022/04/02 03:03:00;;;;;;;5.63;2.40;;;;;;;0.98;72.34;101459.19;5035317;28;20059;-62
2022/04/02 03:05:25;;;;;;;5.07;2.90;;;;;;;0.97;72.36;101454.88;5035945;28;20029;-63
2022/04/02 03:07:51;;;;;;;6.00;3.15;;;;;;;0.86;73.22;101458.78;5035752;28;20029;-62
2022/04/02 03:10:24;;;;;;;5.95;2.72;;;;;;;1.01;72.27;101462.78;5035681;28;20043;-62
2022/04/02 03:12:51;;;;;;;4.95;2.97;;;;;;;0.90;73.25;101469.22;5035579;28;20036;-62
2022/04/02 03:15:18;;;;;;;5.05;2.95;;;;;;;0.85;73.17;101460.47;5035517;28;20033;-62
2022/04/02 03:17:44;;;;;;;4.43;2.58;;;;;;;0.87;73.36;101461.38;5035707;28;20037;-63
2022/04/02 03:20:11;;;;;;;8.55;3.28;;;;;;;0.90;72.68;101461.50;5035455;28;20033;-62
2022/04/02 03:22:39;;;;;;;6.47;3.00;;;;;;;0.89;73.79;101461.44;5035510;28;20041;-62
2022/04/02 03:25:09;;;;;;;4.78;2.95;;;;;;;0.87;73.67;101479.41;5035533;28;20068;-62
2022/04/02 03:27:36;;;;;;;3.78;2.53;;;;;;;0.84;73.63;101468.16;5035463;28;20050;-62
2022/04/02 03:30:04;;;;;;;5.25;2.85;;;;;;;0.85;74.39;101473.34;5035321;28;20029;-62
2022/04/02 03:32:29;;;;;;;6.00;2.60;;;;;;;0.83;74.27;101469.84;5034215;28;20045;-62
2022/04/02 03:34:54;;;;;;;5.50;2.80;;;;;;;0.84;73.07;101469.03;5035444;28;20359;-63
2022/04/02 03:37:20;;;;;;;4.68;2.85;;;;;;;0.65;73.25;101430.53;5035421;28;20405;-62
2022/04/02 03:39:45;;;;;;;4.15;2.78;;;;;;;0.88;73.21;101457.97;5035234;28;20033;-62
2022/04/02 03:42:10;;;;;;;3.80;2.83;;;;;;;0.75;74.44;101460.94;5035172;28;20034;-62
2022/04/02 03:44:35;;;;;;;5.30;2.80;;;;;;;0.73;74.30;101460.00;5035623;28;20036;-62
2022/04/02 03:47:10;;;;;;;7.00;3.20;;;;;;;0.81;74.39;101465.47;5035529;28;20029;-62
2022/04/02 03:49:41;;;;;;;5.45;2.60;;;;;;;0.79;74.21;101470.56;5035126;28;20029;-63
2022/04/02 03:52:07;;;;;;;3.95;2.50;;;;;;;0.78;73.82;101479.09;5034936;28;20025;-62
2022/04/02 03:54:35;;;;;;;5.63;2.80;;;;;;;0.78;73.60;101491.09;5035107;28;20092;-62
2022/04/02 03:57:01;;;;;;;4.78;2.50;;;;;;;0.71;74.40;101479.69;5035098;28;20035;-62
2022/04/02 03:59:27;;;;;;;5.72;3.22;;;;;;;0.70;74.53;101480.50;5034931;28;20040;-62
2022/04/02 04:01:52;;;;;;;5.22;2.90;;;;;;;0.68;75.01;101482.19;5035125;28;20037;-63
2022/04/02 04:04:17;;;;;;;3.92;2.58;;;;;;;0.68;74.76;101479.59;5034718;28;20076;-63
2022/04/02 04:06:42;;;;;;;7.97;3.00;;;;;;;0.69;74.67;101491.66;5034868;28;20461;-61
2022/04/02 04:09:08;;;;;;;4.57;3.20;;;;;;;0.64;75.55;101491.47;5034946;28;20034;-62
2022/04/02 04:11:33;;;;;;;5.45;3.00;;;;;;;0.62;75.72;101495.69;5034682;28;20030;-61
2022/04/02 04:13:58;;;;;;;8.27;2.80;;;;;;;0.61;75.35;101487.91;5034986;28;20045;-62
2022/04/02 04:16:24;;;;;;;5.30;3.00;;;;;;;0.57;75.50;101496.31;5034851;28;20406;-62
2022/04/02 04:18:49;;;;;;;4.97;3.00;;;;;;;0.54;75.67;101493.63;5034268;28;20028;-61
2022/04/02 04:21:14;;;;;;;7.85;3.42;;;;;;;0.49;75.67;101484.88;5034012;28;20158;-62
2022/04/02 04:23:41;;;;;;;6.30;3.20;;;;;;;0.56;75.90;101499.72;5034811;28;20080;-62
2022/04/02 04:26:06;;;;;;;4.78;3.30;;;;;;;0.57;75.65;101509.22;5034692;28;20040;-62
2022/04/02 04:28:31;;;;;;;6.57;3.00;;;;;;;0.52;76.34;101506.44;5034636;28;20041;-63
2022/04/02 04:30:57;;;;;;;4.90;3.13;;;;;;;0.52;75.87;101497.88;5034697;28;20034;-62
2022/04/02 04:33:22;;;;;;;4.35;2.97;;;;;;;0.53;75.76;101504.75;5034803;28;20352;-62
2022/04/02 04:35:47;;;;;;;6.82;3.22;;;;;;;0.54;75.56;101507.38;5034832;28;20034;-62
2022/04/02 04:38:13;;;;;;;7.70;2.88;;;;;;;0.53;75.75;101504.75;5034755;28;20037;-61
2022/04/02 04:40:38;;;;;;;4.68;2.88;;;;;;;0.51;75.65;101506.44;5034576;28;20061;-61
2022/04/02 04:43:03;;;;;;;5.72;2.88;;;;;;;0.47;75.70;101495.13;5034099;28;20096;-62
2022/04/02 04:45:29;;;;;;;5.70;2.85;;;;;;;0.57;74.77;101511.78;5034714;28;20038;-62
2022/04/02 04:47:54;;;;;;;5.30;2.92;;;;;;;0.47;75.49;101510.56;5034339;28;20120;-62
2022/04/02 04:50:19;;;;;;;4.88;2.70;;;;;;;0.45;75.88;101519.06;5034574;28;20033;-62
2022/04/02 04:52:45;;;;;;;4.72;2.72;;;;;;;0.48;75.53;101525.19;5034485;28;20420;-59
2022/04/02 04:55:10;;;;;;;4.55;2.67;;;;;;;0.49;75.46;101531.22;5034215;28;20037;-60
2022/04/02 04:57:36;;;;;;;7.05;2.90;;;;;;;0.50;75.48;101541.59;5034699;28;20046;-63
2022/04/02 05:00:03;;;;;;;4.60;2.42;;;;;;;0.49;75.22;101534.69;5038001;28;20033;-63
2022/04/02 05:02:30;;;;;;;5.57;3.10;;;;;;;0.47;74.78;101538.00;5038045;28;20515;-62
2022/04/02 05:04:55;;;;;;;4.70;2.90;;;;;;;0.50;74.99;101544.16;5038234;28;20036;-62
2022/04/02 05:07:20;;;;;;;5.20;2.40;;;;;;;0.49;74.49;101544.09;5038008;28;20340;-61
2022/04/02 05:09:46;;;;;;;5.22;2.88;;;;;;;0.48;74.93;101550.06;5037999;28;20030;-62
2022/04/02 05:12:12;;;;;;;4.22;2.35;;;;;;;0.52;74.41;101552.81;5037771;28;20116;-62
2022/04/02 05:14:37;;;;;;;3.60;2.40;;;;;;;0.55;74.07;101552.91;5037784;28;20187;-62
2022/04/02 05:17:03;;;;;;;4.68;2.78;;;;;;;0.52;74.24;101551.94;5037825;28;20384;-59
2022/04/02 05:19:28;;;;;;;5.00;2.83;;;;;;;0.54;74.53;101561.47;5037688;28;20047;-59
2022/04/02 05:21:53;;;;;;;6.78;2.50;;;;;;;0.57;73.35;101548.72;5037759;28;20453;-58
2022/04/02 05:24:19;;;;;;;5.95;2.85;;;;;;;0.48;73.65;101537.19;5037756;28;20034;-61
2022/04/02 05:26:47;;;;;;;6.30;2.75;;;;;;;0.62;73.93;101565.22;5037669;28;20033;-61
2022/04/02 05:29:13;;;;;;;4.88;2.75;;;;;;;0.66;73.33;101568.81;5038094;28;20030;-61
2022/04/02 05:31:41;;;;;;;4.57;2.88;;;;;;;0.62;73.34;101566.91;5037263;28;20433;-62
2022/04/02 05:34:06;;;;;;;5.22;2.90;;;;;;;0.69;73.30;101576.66;5037160;28;20033;-62
2022/04/02 05:36:31;;;;;;;4.20;2.38;;;;;;;0.64;73.68;101578.16;5037495;28;20040;-61
2022/04/02 05:38:57;;;;;;;6.15;2.72;;;;;;;0.72;73.39;101581.91;5037786;28;20091;-62
2022/04/02 05:41:22;;;;;;;6.30;2.63;;;;;;;0.77;72.88;101580.38;5037389;28;20029;-60
2022/04/02 05:43:47;;;;;;;7.78;3.17;;;;;;;0.84;72.80;101597.84;5037177;28;20037;-61
2022/04/02 05:46:13;;;;;;;4.00;2.60;;;;;;;0.81;72.71;101599.41;5037326;28;20037;-62
2022/04/02 05:48:38;;;;;;;4.45;2.67;;;;;;;0.84;72.85;101596.97;5037218;28;20091;-62
2022/04/02 05:51:03;;;;;;;7.18;2.85;;;;;;;0.86;73.12;101603.06;5037341;28;20099;-61
2022/04/02 05:53:28;;;;;;;6.38;3.00;;;;;;;0.80;73.65;101606.25;5037185;28;20036;-60
2022/04/02 05:55:54;;;;;;;4.07;2.67;;;;;;;0.83;73.37;101608.09;5037165;28;20107;-61
2022/04/02 05:58:19;;;;;;;5.30;2.75;;;;;;;0.91;72.94;101604.97;5036997;28;20029;-61
2022/04/02 06:00:45;;;;;;;3.92;2.65;;;;;;;0.83;72.92;101602.94;5037233;28;20029;-61
2022/04/02 06:03:14;;;;;;;5.85;2.80;;;;;;;0.89;74.03;101616.03;5037063;28;20495;-61
2022/04/02 06:05:39;;;;;;;5.53;3.00;;;;;;;0.92;73.25;101618.72;5036988;28;20360;-61
2022/04/02 06:08:05;;;;;;;7.70;3.10;;;;;;;0.93;74.18;101618.78;5035027;28;20029;-60
2022/04/02 06:10:30;;;;;;;5.18;2.70;;;;;;;0.88;73.61;101599.69;5035094;28;20029;-61
2022/04/02 06:12:56;;;;;;;8.02;2.95;;;;;;;0.95;73.72;101622.28;5036847;28;20364;-61
2022/04/02 06:15:24;;;;;;;6.07;2.97;;;;;;;0.98;73.59;101624.13;5037021;28;20333;-60
2022/04/02 06:17:49;;;;;;;6.57;3.10;;;;;;;1.02;73.28;101621.72;5036600;28;20022;-61
2022/04/02 06:20:14;;;;;;;5.45;3.05;;;;;;;1.07;74.05;101631.31;5036258;28;20068;-60
2022/04/02 06:22:40;;;;;;;8.35;3.65;;;;;;;1.11;73.04;101622.88;5036741;28;20429;-60
2022/04/02 06:25:05;;;;;;;5.70;3.15;;;;;;;1.01;74.17;101604.50;5036668;28;20029;-61
2022/04/02 06:27:31;;;;;;;7.22;3.13;;;;;;;1.19;73.84;101639.50;5036390;28;20445;-58
2022/04/02 06:29:57;;;;;;;5.22;3.03;;;;;;;1.26;73.20;101644.06;5037021;28;20029;-58
2022/04/02 06:32:23;;;;;;;6.03;2.85;;;;;;;1.30;72.60;101648.50;5036012;28;20025;-56
2022/04/02 06:34:48;;;;;;;6.05;3.13;;;;;;;1.35;72.87;101647.00;5036389;28;20033;-56
2022/04/02 06:37:13;;;;;;;6.63;3.47;;;;;;;1.30;73.77;101639.06;5036284;28;20037;-59
2022/04/02 06:39:39;;;;;;;6.18;3.08;;;;;;;1.36;72.38;101654.78;5036007;28;20041;-60
2022/04/02 06:42:04;;;;;;;4.90;2.65;;;;;;;1.35;73.03;101644.41;5036237;28;20082;-59
2022/04/02 06:44:30;;;;;;;5.55;3.10;;;;;;;1.42;73.21;101654.09;5035346;28;20348;-59
2022/04/02 06:46:56;;;;;;;5.72;3.03;;;;;;;1.45;73.13;101661.97;5036062;28;20029;-59
2022/04/02 06:49:22;;;;;;;6.53;3.30;;;;;;;1.43;72.87;101658.44;5036136;28;20034;-59
2022/04/02 06:51:47;;;;;;;6.95;3.28;;;;;;;1.43;72.47;101642.97;5036032;28;20460;-59
2022/04/02 06:54:12;;;;;;;5.72;2.45;;;;;;;1.56;72.17;101667.53;5035858;28;20037;-60
2022/04/02 06:56:37;;;;;;;5.13;3.03;;;;;;;1.59;72.27;101676.22;5035730;28;20463;-59
2022/04/02 06:59:03;;;;;;;6.07;3.30;;;;;;;1.61;71.36;101679.75;5035616;28;20036;-60
2022/04/02 07:01:28;;;;;;;7.57;3.10;;;;;;;1.69;70.99;101686.06;5035755;28;20044;-59
2022/04/02 07:03:53;;;;;;;8.60;3.05;;;;;;;1.65;72.22;101676.47;5034735;28;20461;-59
2022/04/02 07:06:19;;;;;;;8.32;3.28;;;;;;;1.77;71.76;101688.91;5035895;28;20029;-59
2022/04/02 07:08:44;;;;;;;5.68;3.10;;;;;;;1.83;71.03;101678.81;5035728;28;20037;-59
2022/04/02 07:11:09;;;;;;;4.32;3.00;;;;;;;1.86;71.32;101689.25;5035248;28;20042;-59
2022/04/02 07:13:34;;;;;;;5.18;3.13;;;;;;;1.89;70.75;101689.38;5035665;28;20057;-59
2022/04/02 07:16:02;;;;;;;6.38;3.60;;;;;;;1.98;70.90;101693.97;5035492;28;20037;-62
2022/04/02 07:18:27;;;;;;;12.43;4.20;;;;;;;2.10;70.33;101699.53;5035665;28;20404;-59
2022/04/02 07:20:53;;;;;;;6.53;3.30;;;;;;;2.02;69.97;101701.00;5034457;28;20057;-60
2022/04/02 07:23:19;;;;;;;5.00;3.25;;;;;;;2.11;70.36;101701.28;5035591;28;20029;-59
2022/04/02 07:25:45;;;;;;;4.75;2.97;;;;;;;2.16;70.06;101701.47;5035428;28;20404;-59
2022/04/02 07:28:10;;;;;;;6.13;3.20;;;;;;;2.23;70.58;101703.44;5035163;28;20032;-59
2022/04/02 07:30:38;;;;;;;4.57;3.10;;;;;;;2.28;71.51;101710.50;5035366;28;20069;-59
2022/04/02 07:33:04;;;;;;;7.53;3.00;;;;;;;2.32;69.87;101699.44;5035293;28;20037;-59
2022/04/02 07:35:49;;;;;;;5.82;3.10;;;;;;;2.44;70.22;101717.94;5031303;28;20025;-59
2022/04/02 07:38:39;;;;;;;5.93;3.40;;;;;;;2.40;70.22;101713.50;5034686;28;20347;-58
2022/04/02 07:41:20;;;;;;;6.55;3.20;;;;;;;2.55;69.99;101726.06;5035137;28;20033;-58
2022/04/02 07:44:07;;;;;;;5.40;3.05;;;;;;;2.69;69.46;101721.34;5033938;28;20055;-59
2022/04/02 07:46:33;;;;;;;7.30;3.58;;;;;;;2.66;68.55;101711.78;5034720;28;20112;-59
2022/04/02 07:49:00;;;;;;;6.38;3.03;;;;;;;2.87;67.88;101728.81;5034810;28;20030;-58
2022/04/02 07:51:30;;;;;;;5.78;3.08;;;;;;;2.97;68.37;101729.13;5034832;28;20033;-59
2022/04/02 07:54:00;;;;;;;5.57;2.70;;;;;;;3.15;66.56;101729.72;5035101;28;20098;-59
2022/04/02 07:56:48;;;;;;;7.82;3.22;;;;;;;3.22;68.08;101735.97;5034973;28;20345;-59
2022/04/02 07:59:35;;;;;;;5.13;3.10;;;;;;;3.36;67.54;101736.38;5034901;28;20029;-58
2022/04/02 08:02:01;;;;;;;5.55;3.35;;;;;;;3.52;65.62;101741.16;5034743;28;20032;-59
2022/04/02 08:04:28;;;;;;;6.88;3.90;;;;;;;3.54;67.17;101741.22;5034644;28;20033;-58
2022/04/02 08:06:54;;;;;;;7.38;3.28;;;;;;;3.59;65.40;101732.75;5034906;28;20061;-59
2022/04/02 08:09:20;;;;;;;5.32;3.20;;;;;;;3.62;64.64;101743.22;5034884;28;20029;-59
2022/04/02 08:11:48;;;;;;;9.27;3.90;;;;;;;3.56;65.68;101743.03;5033716;28;20120;-59
2022/04/02 08:14:14;;;;;;;7.72;3.58;;;;;;;3.74;66.21;101740.97;5035002;28;20117;-58
2022/04/02 08:16:45;;;;;;;6.25;3.53;;;;;;;4.04;64.56;101745.25;5034767;28;20049;-59
2022/04/02 08:19:11;;;;;;;5.85;3.55;;;;;;;4.16;64.49;101750.75;5034613;28;20116;-58
2022/04/02 08:21:37;;;;;;;6.60;3.65;;;;;;;4.07;63.81;101733.25;5034787;28;20057;-59
2022/04/02 08:24:03;;;;;;;5.20;3.55;;;;;;;4.11;64.89;101739.41;5034620;28;20061;-59
2022/04/02 08:27:05;;;;;;;7.72;3.85;;;;;;;4.18;65.12;101746.50;5034096;28;20072;-59
2022/04/02 08:29:51;;;;;;;5.70;3.45;;;;;;;4.12;63.63;101759.28;5034813;28;20025;-60
2022/04/02 08:32:26;;;;;;;5.75;3.17;;;;;;;4.19;62.47;101751.72;5034534;28;20029;-60
2022/04/02 08:35:00;;;;;;;7.47;3.97;;;;;;;4.18;63.42;101743.91;5038660;28;20026;-58
2022/04/02 08:37:45;;;;;;;7.22;3.72;;;;;;;4.19;64.25;101740.47;5038568;28;20037;-59
2022/04/02 08:40:42;;;;;;;6.68;3.67;;;;;;;4.57;63.74;101746.66;5038618;28;20295;-59
2022/04/02 08:43:56;;;;;;;6.97;3.85;;;;;;;4.63;63.62;101767.56;5037653;28;20325;-59
2022/04/02 08:46:34;;;;;;;8.40;3.55;;;;;;;4.49;62.75;101766.34;5038525;28;20069;-59
2022/04/02 08:49:19;;;;;;;6.22;3.10;;;;;;;4.44;64.27;101767.94;5038345;28;20420;-59
2022/04/02 08:51:46;;;;;;;5.32;3.75;;;;;;;4.40;63.44;101760.91;5037926;28;20350;-59
2022/04/02 08:54:24;;;;;;;7.68;4.03;;;;;;;4.15;64.35;101769.75;5037669;28;20398;-59
2022/04/02 08:56:59;;;;;;;8.18;3.90;;;;;;;4.02;64.96;101770.22;5038166;28;20037;-59
2022/04/02 08:59:38;;;;;;;9.15;3.97;;;;;;;3.89;66.21;101786.25;5037902;28;20033;-58
2022/04/02 09:02:45;;;;;;;9.63;3.90;;;;;;;3.99;66.38;101783.06;5037528;28;20091;-59
2022/04/02 09:05:38;;;;;;;8.18;4.20;;;;;;;3.77;65.46;101790.25;5020752;28;20458;-58
2022/04/02 09:08:15;;;;;;;8.40;3.97;;;;;;;3.88;65.09;101795.72;5038088;28;20419;-59
2022/04/02 09:11:26;;;;;;;7.82;4.82;;;;;;;3.88;66.08;101794.84;5037952;28;20033;-59
2022/04/02 09:14:08;;;;;;;7.03;3.90;;;;;;;3.90;66.64;101801.81;5038055;28;20083;-59
2022/04/02 09:16:44;;;;;;;6.80;4.07;;;;;;;4.08;66.70;101799.75;5037763;28;20424;-58
2022/04/02 09:19:21;;;;;;;6.82;4.50;;;;;;;4.33;66.86;101806.47;5038175;28;20097;-58
2022/04/02 09:22:06;;;;;;;5.30;4.35;;;;;;;4.46;65.64;101798.22;5037281;28;20530;-59
2022/04/02 09:24:31;;;;;;;5.03;3.63;;;;;;;4.43;64.69;101802.44;5036732;28;20037;-58
2022/04/02 09:27:18;;;;;;;8.10;4.13;;;;;;;4.42;65.98;101818.81;5038023;28;20022;-58
2022/04/02 09:30:02;;;;;;;9.43;4.50;;;;;;;4.52;65.34;101806.16;5037563;28;20414;-59
2022/04/02 09:33:08;;;;;;;6.47;4.55;;;;;;;4.60;64.52;101815.84;5037620;28;20032;-58
2022/04/02 09:35:58;;;;;;;6.93;4.18;;;;;;;4.47;64.47;101819.84;5037481;28;20034;-59
2022/04/02 09:38:48;;;;;;;7.82;4.13;;;;;;;4.34;65.36;101818.59;5037529;28;20037;-59
2022/04/02 09:41:16;;;;;;;7.80;4.55;;;;;;;4.14;64.72;101799.06;5037323;28;20032;-58
2022/04/02 09:43:59;;;;;;;8.20;4.63;;;;;;;4.22;64.93;101818.28;5037157;28;20428;-58
2022/04/02 09:46:55;;;;;;;8.70;4.40;;;;;;;4.25;64.93;101822.66;5037227;28;20052;-59
2022/04/02 09:49:32;;;;;;;8.52;4.32;;;;;;;4.24;64.06;101821.78;5037270;28;20021;-59
2022/04/02 09:52:04;;;;;;;6.15;4.05;;;;;;;4.32;65.09;101814.25;5036885;28;20029;-59
2022/04/02 09:54:51;;;;;;;6.68;4.47;;;;;;;4.78;64.03;101811.16;5037032;28;20404;-58
2022/04/02 09:57:22;;;;;;;6.85;4.07;;;;;;;5.15;61.31;101803.44;5036939;28;20033;-58
2022/04/02 09:59:47;;;;;;;7.13;4.47;;;;;;;5.35;62.53;101810.81;5037573;28;20039;-59
2022/04/02 10:02:33;;;;;;;4.67;3.83;;;;;;;5.53;61.17;101798.28;5037013;28;20042;-58
2022/04/02 10:05:07;;;;;;;7.38;3.97;;;;;;;5.62;59.36;101813.16;5036771;28;20279;-58
2022/04/02 10:07:49;;;;;;;6.82;4.00;;;;;;;5.71;60.05;101810.78;5036889;28;20403;-58
2022/04/02 10:10:15;;;;;;;8.63;4.47;;;;;;;5.79;60.72;101801.41;5036977;28;20033;-59
2022/04/02 10:12:46;;;;;;;5.57;3.85;;;;;;;5.83;59.57;101809.31;5036760;28;20033;-58
2022/04/02 10:15:14;;;;;;;8.70;4.07;;;;;;;6.11;59.08;101794.31;5036888;28;20096;-59
2022/04/02 10:17:43;;;;;;;8.15;4.50;;;;;;;6.38;57.89;101801.78;5035652;28;20037;-59
2022/04/02 10:20:09;;;;;;;6.18;4.00;;;;;;;6.57;58.31;101802.16;5036315;28;20116;-56
2022/04/02 10:22:45;;;;;;;7.80;4.15;;;;;;;6.72;57.83;101788.56;5036613;28;20109;-58
2022/04/02 10:25:13;;;;;;;6.68;4.25;;;;;;;6.69;58.72;101792.81;5036608;28;20041;-57
2022/04/02 10:27:40;;;;;;;7.70;4.20;;;;;;;6.55;56.84;101797.78;5036507;28;20033;-57
2022/04/02 10:30:14;;;;;;;7.47;4.20;;;;;;;6.43;58.50;101788.00;5036514;28;20084;-55
2022/04/02 10:32:49;;;;;;;7.75;3.63;;;;;;;6.07;57.95;101797.69;5036421;28;20021;-56
2022/04/02 10:35:15;;;;;;;5.35;3.80;;;;;;;5.81;57.81;101779.84;5036203;28;20124;-57
2022/04/02 10:38:06;;;;;;;6.20;3.92;;;;;;;5.50;59.55;101796.47;5035940;28;20079;-58
2022/04/02 10:40:40;;;;;;;8.25;4.50;;;;;;;5.21;62.70;101798.38;5036145;28;20049;-58
2022/04/02 10:43:10;;;;;;;10.75;4.22;;;;;;;4.83;64.89;101805.25;5035144;28;20108;-58
2022/04/02 10:45:39;;;;;;;6.95;4.30;;;;;;;4.39;68.20;101813.56;5036342;28;20033;-59
2022/04/02 10:48:10;;;;;;;8.50;4.70;;;;;;;4.17;66.71;101812.09;5035208;28;20453;-59
2022/04/02 10:50:37;;;;;;;7.30;4.00;;;;;;;4.06;66.02;101809.19;5036175;28;20029;-59
2022/04/02 10:53:04;;;;;;;7.95;4.40;;;;;;;3.88;66.82;101812.97;5036076;28;20033;-58
2022/04/02 10:55:30;;;;;;;6.50;4.13;;;;;;;3.96;67.43;101816.66;5035693;28;20038;-59
2022/04/02 10:57:59;;;;;;;5.75;3.83;;;;;;;4.03;67.34;101806.50;5035964;28;20083;-58
2022/04/02 11:00:26;;;;;;;7.57;4.15;;;;;;;4.04;66.27;101805.69;5036007;28;20048;-59
2022/04/02 11:03:03;;;;;;;12.38;4.45;;;;;;;4.11;66.56;101809.34;5035810;28;20040;-58
2022/04/02 11:05:34;;;;;;;7.85;4.32;;;;;;;4.08;66.49;101802.34;5035852;28;20061;-59
2022/04/02 11:08:09;;;;;;;4.93;3.80;;;;;;;4.12;66.45;101813.69;5035993;28;20055;-59
2022/04/02 11:10:35;;;;;;;8.38;4.65;;;;;;;4.03;66.72;101805.63;5035427;28;20043;-59
2022/04/02 11:13:02;;;;;;;7.57;4.25;;;;;;;4.09;65.18;101814.47;5034439;28;20033;-57
2022/04/02 11:15:28;;;;;;;7.32;4.15;;;;;;;4.11;64.47;101805.03;5035585;28;20040;-59
2022/04/02 11:17:56;;;;;;;8.32;3.97;;;;;;;4.04;63.81;101803.09;5035573;28;20352;-59
2022/04/02 11:20:24;;;;;;;6.72;4.18;;;;;;;4.15;64.59;101806.88;5035799;28;20056;-59
2022/04/02 11:22:52;;;;;;;7.72;4.13;;;;;;;4.30;64.65;101795.19;5035697;28;20029;-58
2022/04/02 11:25:29;;;;;;;5.97;3.63;;;;;;;4.32;62.07;101796.09;5035529;28;20033;-60
2022/04/02 11:28:05;;;;;;;6.30;3.40;;;;;;;4.37;62.22;101805.75;5035023;28;20336;-58
2022/04/02 11:30:32;;;;;;;7.32;3.67;;;;;;;4.54;59.82;101796.69;5035318;28;20490;-59
2022/04/02 11:33:17;;;;;;;8.38;4.05;;;;;;;4.68;60.09;101803.94;5035347;28;20037;-59
2022/04/02 11:35:51;;;;;;;6.72;3.42;;;;;;;4.73;59.48;101794.59;5035496;28;20029;-60
2022/04/02 11:38:19;;;;;;;7.68;3.80;;;;;;;4.83;61.10;101801.78;5034999;28;20412;-58
2022/04/02 11:41:13;;;;;;;8.23;3.60;;;;;;;4.85;60.40;101800.94;5035201;28;20033;-59
2022/04/02 11:43:41;;;;;;;6.30;3.10;;;;;;;4.77;57.61;101809.38;5032933;28;20037;-59
2022/04/02 11:46:09;;;;;;;5.70;2.90;;;;;;;4.66;57.18;101806.53;5035201;28;20064;-59